NTAA/PPT METAR and TAF weather

Enter ICAO airport designator
Station Type Date Time Source
NTAA METAR 2019/12/10 19:30 UTC NOAA

NTAA 101930Z 27004KT 9999 FEW021 SCT150 BKN300 29/23 Q1013 NOSIG


Station Type Date Time Source
NTAA Decoded METAR 2019/12/10 19:30 UTC NOAA

Tahiti-Faaa, French Polynesia (NTAA) 17-33S 149-37W 2M
Dec 10, 2019 - 02:30 PM EST / 2019.12.10 1930 UTC
Wind: from the W (270 degrees) at 5 MPH (4 KT):0
Visibility: greater than 7 mile(s):0
Sky conditions: mostly cloudy
Temperature: 84 F (29 C)
Dew Point: 73 F (23 C)
Relative Humidity: 70%
Pressure (altimeter): 29.91 in. Hg (1013 hPa)
ob: NTAA 101930Z 27004KT 9999 FEW021 SCT150 BKN300 29/23 Q1013 NOSIG
cycle: 19

Station Type Date Time Source
NTAA TAF 2019/12/10 18:09 UTC NOAA

TAF NTAA 101700Z 1018/1124 VRB05KT 9999 FEW023 SCT040 BKN300 PROB30
TEMPO 1100/1115 04015KT 3000 SHRA FEW013CB BKN016 BKN040

Example: see airport list